AirNav   Pilot Hours Calculator
 
 1160 users online  

0GA0 Halls Flying Ranch Airport
Hampton, Georgia, USA

GOING TO HAMPTON?


FAA INFORMATION EFFECTIVE 22 APRIL 2021

Location

FAA Identifier: 0GA0
Lat/Long: 33-21-22.4140N 084-22-01.7270W
33-21.373567N 084-22.028783W
33.3562261,-84.3671464
(estimated)
Elevation: 800 ft. / 244 m (estimated)
Variation: 02W (1985)
From city: 4 miles SW of HAMPTON, GA
Time zone: UTC -4 (UTC -5 during Standard Time)
Zip code: 30228

Airport Operations

Airport use: Private use. Permission required prior to landing
Activation date: 04/1971
Control tower: no
ARTCC: ATLANTA CENTER
FSS: MACON FLIGHT SERVICE STATION
Attendance: CONTINUOUS
OWNER LIVES ON ARPT.
Wind indicator: yes
Segmented circle: no

Airport Communications

WX AWOS-3 at HMP (2.7 nm NE): 124.825 (770-707-1719)
WX AWOS-3 at 6A2 (9 nm SE): 119.750 (770-227-3934)
WX ASOS at FFC (10 nm W): 118.525 (770-487-1610)
WX ASOS at ATL (17 nm N): PHONE 404-559-5166

Nearby radio navigation aids

VOR radial/distance  VOR name  Freq  Var
ATLr173/16.7ATLANTA VORTAC116.9005W
PDKr191/31.4PEACHTREE VOR/DME116.6005W

 
NDB name  Hdg/Dist  Freq  Var  ID
PECAT066/6.831605WFFC ..-. ..-. -.-.
COWETA COUNTY074/18.423403WEQQ . --.- --.-
ALCOVY244/33.637003WVOF ...- --- ..-.
PINE MOUNTAIN043/39.927203WPIM .--. .. --

Airport Services

Airframe service: NONE
Powerplant service: NONE

Runway Information

Runway 1/19

Dimensions: 2150 x 50 ft. / 655 x 15 m
Surface: turf
RUNWAY 1  RUNWAY 19
Traffic pattern: leftleft
Obstructions: treespline

Airport Ownership and Management from official FAA records

Ownership: Privately-owned
Owner: JOEY H. KEAHEY
771 HALL RD
HAMPTON, GA 30228-2222
Phone 678-410-8179
Manager: JOEY H. KEAHEY
771 HALL RD
HAMPTON, GA 30228-2222
Phone 678-410-8179

Airport Operational Statistics

Aircraft based on the field: 6
Single engine airplanes: 6
    

Additional Remarks

FOR CD CTC ATLANTA APCH AT 678-364-6131.

Instrument Procedures

There are no published instrument procedures at 0GA0.

Some nearby airports with instrument procedures:

KHMP - Atlanta Speedway Airport (3 nm NE)
6A2 - Griffin-Spalding County Airport (9 nm SE)
KFFC - Atlanta Regional Airport-Falcon Field (10 nm W)
KATL - Hartsfield - Jackson Atlanta International Airport (17 nm N)
KCCO - Newnan Coweta County Airport (20 nm W)
 
Loc | Ops | Rwys | IFR | FBO | Links
Com | Nav | Svcs | Stats | Notes
Area around 0GA0 (Halls Flying Ranch Airport)
 
Road maps at: MapQuest Bing Google
 
Aerial photo
No photo
 
Sectional chart

 
Airport distance calculator
Flying to Halls Flying Ranch Airport? Find the distance to fly.

From to 0GA0

Sunrise and sunset
Times for 15-May-2021
 Local
(UTC-4)
 Zulu
(UTC)
Morning civil twilight06:1110:11
Sunrise06:3810:38
Sunset20:2900:29
Evening civil twilight20:5700:57

Current date and time
Zulu (UTC)  15-May-2021 19:39:27
Local (UTC-4)  15-May-2021 15:39:27
 
METAR
KHMP 
3nm NE 
151915Z AUTO 11004KT 10SM SCT070 BKN080 24/08 A3027 RMK AO2 T02420085
K6A2 
9nm SE 
151915Z AUTO 00000KT 10SM OVC065 22/06 A3025 RMK AO2
KFFC 
10nm W 
151853Z AUTO VRB03KT 10SM CLR 23/08 A3025 RMK AO2 SLP241 T02330078
KATL 
17nm N 
151852Z VRB04KT 10SM BKN070 BKN250 23/07 A3025 RMK AO2 SLP237 T02330072
TAF
KATL 
17nm N 
151720Z 1518/1624 22006KT P6SM BKN080 FM160100 VRB03KT P6SM FEW250 FM161500 21007KT P6SM SCT060
NOTAMs
Click for the latest NOTAMs
NOTAMs are issued by the DoD/FAA and will open in a separate window not controlled by AirNav.

 

 
 

Would you like to see your business listed on this page?

 If your business provides an interesting product or service to pilots, flight crews, aircraft, or users of the Halls Flying Ranch Airport, you should consider listing it here.  To start the listing process, click on the button below
 
Add a business
 

Other Pages about Halls Flying Ranch Airport

Update a link
 
Copyright © AirNav, LLC. All rights reserved. Privacy Policy  Contact